Fukushima Airport Sukagawa JP
ICAO: RJSF
IATA:
Category: Medium
Scheduled Services:

Elevation: 1221 ft
TransAlt. 14000 ft.

Airport Communications:
RDO:118.05

RJSF Zoom In..

If you have problems with the map follow the link
https://www.worldairports.se/pages/airport.php?
ICAO=RJSF

Runways:

(A) RW 01 length 8202 ft width 197 ft
ILS 110.50 / hdg 10

(B) RW 19 length 8202 ft width 197 ft
---- / hdg 190

Location; RJSF
Day. 22 / Time. 11.00 Zulu
* QNH: 1016
* Temperature: 04° c. 39.2°f.
* Wind from: 010° Speed 04 kn.
Dewpoint: -04° c.
Visibility: 10 km or more,
No clouds below 1,500 m.
No cumulonimbus, and no significant weather
fenomena in the aerodrome or its vicinity.

RJSF 221100Z 01004KT CAVOK 04/M04 Q1016


Wind From 010°
Speed 04 kn.

 
 
jpsmedia.com for Web Design worldairports.se 2019   terms of use